Time;durP1;ratioP1;P1;durP2;ratioP2;P2;SDS_P1;SDS_P2;PMS_P1;PMS_P2;Temp;Humidity;BMP_temperature;BMP_pressure;BME280_temperature;BME280_humidity;BME280_pressure;Samples;Min_cycle;Max_cycle;Signal;HPM_P1;HPM_P2
2023/06/06 00:01:36;;;;;;;7.38;2.78;;;;;;;12.84;100.00;102204.91;4971279;28;20397;-69
2023/06/06 00:04:03;;;;;;;8.27;2.92;;;;;;;12.88;100.00;102203.94;4970912;28;20103;-69
2023/06/06 00:06:32;;;;;;;7.95;2.80;;;;;;;12.89;100.00;102201.25;4970394;28;20054;-70
2023/06/06 00:09:01;;;;;;;9.40;2.67;;;;;;;12.82;100.00;102218.09;4971086;28;20062;-70
2023/06/06 00:11:28;;;;;;;6.40;2.25;;;;;;;12.89;100.00;102209.16;4970454;28;20051;-70
2023/06/06 00:13:56;;;;;;;7.47;2.55;;;;;;;12.84;100.00;102202.28;4971301;28;20050;-70
2023/06/06 00:16:27;;;;;;;6.72;2.65;;;;;;;12.85;100.00;102218.00;4961967;28;20082;-69
2023/06/06 00:18:55;;;;;;;8.35;2.75;;;;;;;12.74;100.00;102214.75;4970326;28;20485;-69
2023/06/06 00:21:22;;;;;;;10.35;3.00;;;;;;;12.72;100.00;102227.94;4969383;28;20047;-69
2023/06/06 00:23:49;;;;;;;8.38;2.97;;;;;;;12.81;100.00;102208.47;4970341;28;20058;-69
2023/06/06 00:26:16;;;;;;;7.32;2.72;;;;;;;12.63;100.00;102203.66;4969288;28;20133;-70
2023/06/06 00:28:43;;;;;;;6.93;2.47;;;;;;;12.89;100.00;102219.66;4970784;28;20162;-70
2023/06/06 00:31:09;;;;;;;7.15;2.83;;;;;;;12.83;100.00;102216.31;4970520;28;20046;-70
2023/06/06 00:33:37;;;;;;;7.32;2.55;;;;;;;12.80;100.00;102217.25;4971584;28;20542;-70
2023/06/06 00:36:04;;;;;;;9.23;2.83;;;;;;;12.87;100.00;102207.44;4969281;28;20481;-69
2023/06/06 00:38:31;;;;;;;8.65;2.65;;;;;;;13.03;100.00;102200.06;4971588;28;20043;-69
2023/06/06 00:40:58;;;;;;;7.13;2.50;;;;;;;13.06;100.00;102202.63;4973669;28;20049;-69
2023/06/06 00:43:25;;;;;;;8.30;2.35;;;;;;;13.00;100.00;102205.41;4965274;28;20047;-70
2023/06/06 00:45:51;;;;;;;7.13;2.30;;;;;;;13.09;100.00;102197.28;4969364;28;20065;-70
2023/06/06 00:48:20;;;;;;;7.68;2.47;;;;;;;12.96;100.00;102202.00;4970307;28;20137;-70
2023/06/06 00:50:47;;;;;;;7.60;2.63;;;;;;;12.93;100.00;102196.78;4970118;28;20050;-69
2023/06/06 00:53:14;;;;;;;6.78;2.10;;;;;;;13.06;100.00;102202.63;4970710;28;20086;-70
2023/06/06 00:55:42;;;;;;;6.70;2.53;;;;;;;13.05;100.00;102199.13;4970128;28;20477;-70
2023/06/06 00:58:10;;;;;;;6.60;2.45;;;;;;;13.06;100.00;102206.09;4970299;28;20129;-69
2023/06/06 01:00:39;;;;;;;6.10;2.22;;;;;;;12.87;100.00;102203.06;4970324;28;20054;-69
2023/06/06 01:03:09;;;;;;;8.70;2.45;;;;;;;13.03;100.00;102207.94;4970561;28;20142;-70
2023/06/06 01:05:37;;;;;;;7.10;2.30;;;;;;;12.95;100.00;102200.25;4968566;28;20121;-69
2023/06/06 01:08:05;;;;;;;9.05;3.00;;;;;;;12.79;100.00;102193.63;4967606;28;20358;-70
2023/06/06 01:10:36;;;;;;;8.40;2.60;;;;;;;12.88;100.00;102196.03;4956902;28;20494;-70
2023/06/06 01:13:15;;;;;;;6.75;2.38;;;;;;;12.89;100.00;102196.00;4973950;28;20060;-69
2023/06/06 01:15:51;;;;;;;7.47;2.70;;;;;;;12.82;100.00;102198.78;4969999;28;20051;-70
2023/06/06 01:18:22;;;;;;;7.80;2.55;;;;;;;12.80;100.00;102198.88;4973162;28;20051;-70
2023/06/06 01:20:49;;;;;;;8.25;2.22;;;;;;;12.83;100.00;102198.75;4971626;28;20058;-69
2023/06/06 01:23:17;;;;;;;6.57;2.60;;;;;;;12.77;100.00;102188.41;4973693;28;20047;-70
2023/06/06 01:25:47;;;;;;;7.05;2.42;;;;;;;12.74;100.00;102185.84;4973089;28;20058;-70
2023/06/06 01:28:16;;;;;;;5.80;2.20;;;;;;;12.77;100.00;102195.44;4972656;28;20138;-69
2023/06/06 01:30:45;;;;;;;8.80;3.03;;;;;;;12.77;100.00;102195.44;4973194;28;20051;-69
2023/06/06 01:33:32;;;;;;;7.57;2.58;;;;;;;12.86;100.00;102190.81;4974279;28;20046;-69
2023/06/06 01:36:10;;;;;;;7.28;2.80;;;;;;;12.85;100.00;102189.06;4972700;28;20078;-69
2023/06/06 01:38:45;;;;;;;10.45;2.85;;;;;;;12.83;100.00;102177.75;4973147;28;20042;-69
2023/06/06 01:41:16;;;;;;;8.65;2.45;;;;;;;12.90;100.00;102178.47;4972947;28;20401;-69
2023/06/06 01:43:45;;;;;;;6.93;2.30;;;;;;;12.83;100.00;102184.78;4973686;28;20389;-69
2023/06/06 01:46:13;;;;;;;8.23;3.05;;;;;;;12.80;100.00;102171.69;4954420;28;20572;-69
2023/06/06 01:48:41;;;;;;;9.63;2.60;;;;;;;12.73;100.00;102176.25;4974811;28;20050;-69
2023/06/06 01:51:08;;;;;;;6.75;2.00;;;;;;;12.76;100.00;102175.31;4972949;28;20083;-70
2023/06/06 01:53:35;;;;;;;5.90;2.10;;;;;;;12.67;100.00;102168.50;4972791;28;20465;-69
2023/06/06 01:56:02;;;;;;;7.10;2.55;;;;;;;12.69;100.00;102175.44;4972224;28;20412;-70
2023/06/06 01:58:29;;;;;;;7.85;2.75;;;;;;;12.69;100.00;102171.94;4970591;28;20047;-70
2023/06/06 02:00:56;;;;;;;8.70;2.78;;;;;;;12.75;100.00;102177.06;4969449;28;20057;-70
2023/06/06 02:03:23;;;;;;;9.45;2.90;;;;;;;12.63;100.00;102172.97;4972772;28;20054;-69
2023/06/06 02:05:50;;;;;;;7.35;3.10;;;;;;;12.64;100.00;102171.19;4971561;28;20086;-70
2023/06/06 02:08:17;;;;;;;10.23;3.08;;;;;;;12.62;100.00;102160.72;4972400;28;20047;-70
2023/06/06 02:10:44;;;;;;;6.30;2.47;;;;;;;12.71;100.00;102170.16;4972046;28;20444;-70
2023/06/06 02:13:11;;;;;;;7.78;2.85;;;;;;;12.69;100.00;102170.19;4971460;28;20058;-69
2023/06/06 02:15:38;;;;;;;7.28;2.70;;;;;;;12.67;100.00;102171.97;4971194;28;20239;-69
2023/06/06 02:18:05;;;;;;;8.75;2.60;;;;;;;12.71;100.00;102157.91;4972143;28;20047;-69
2023/06/06 02:20:32;;;;;;;7.95;2.38;;;;;;;12.87;100.00;102170.63;4972162;28;20082;-69
2023/06/06 02:22:58;;;;;;;6.25;1.98;;;;;;;12.90;100.00;102170.56;4971123;28;20065;-70
2023/06/06 02:25:26;;;;;;;7.95;2.60;;;;;;;12.78;100.00;102158.59;4970368;28;20051;-69
2023/06/06 02:27:56;;;;;;;7.70;2.83;;;;;;;12.79;100.00;102152.44;4972121;28;20475;-69
2023/06/06 02:30:24;;;;;;;7.00;2.50;;;;;;;12.62;100.00;102136.22;4954678;28;20050;-69
2023/06/06 02:32:51;;;;;;;6.90;2.60;;;;;;;12.78;100.00;102155.94;4978010;28;20082;-69
2023/06/06 02:35:21;;;;;;;7.28;2.30;;;;;;;12.75;100.00;102155.16;4970246;28;20109;-69
2023/06/06 02:37:47;;;;;;;10.27;2.40;;;;;;;12.83;100.00;102154.09;4972083;28;20423;-69
2023/06/06 02:40:15;;;;;;;7.00;2.67;;;;;;;12.85;100.00;102161.94;4970803;28;20053;-69
2023/06/06 02:42:41;;;;;;;9.52;2.55;;;;;;;12.92;100.00;102158.25;4972501;28;20047;-70
2023/06/06 02:45:10;;;;;;;8.88;2.33;;;;;;;12.87;100.00;102162.75;4969003;28;20060;-70
2023/06/06 02:47:37;;;;;;;8.63;2.72;;;;;;;12.70;100.00;102150.91;4972217;28;20047;-70
2023/06/06 02:50:05;;;;;;;6.80;2.35;;;;;;;12.77;100.00;102151.63;4971161;28;20564;-70
2023/06/06 02:52:31;;;;;;;5.82;2.05;;;;;;;12.75;100.00;102148.16;4971850;28;20051;-69
2023/06/06 02:54:59;;;;;;;7.95;2.15;;;;;;;12.70;100.00;102157.94;4968742;28;20051;-71
2023/06/06 02:57:38;;;;;;;6.88;2.45;;;;;;;12.69;100.00;102157.03;4979448;28;20049;-70
2023/06/06 03:00:08;;;;;;;8.65;2.47;;;;;;;12.60;100.00;102138.00;4969117;28;20121;-69
2023/06/06 03:02:35;;;;;;;8.68;2.72;;;;;;;12.73;100.00;102155.22;4964827;28;20376;-70
2023/06/06 03:05:03;;;;;;;7.72;2.28;;;;;;;12.65;100.00;102147.50;4969018;28;20458;-70
2023/06/06 03:07:30;;;;;;;6.63;3.20;;;;;;;12.76;100.00;102149.03;4970740;28;20047;-70
2023/06/06 03:09:57;;;;;;;6.50;2.17;;;;;;;12.73;100.00;102150.84;4971017;28;20050;-69
2023/06/06 03:12:24;;;;;;;6.50;2.30;;;;;;;12.65;100.00;102137.00;4972064;28;20057;-69
2023/06/06 03:14:51;;;;;;;7.78;2.55;;;;;;;12.71;100.00;102150.00;4970257;28;20449;-70
2023/06/06 03:17:23;;;;;;;10.00;2.88;;;;;;;12.77;100.00;102156.03;4971702;28;20405;-69
2023/06/06 03:19:50;;;;;;;8.00;2.63;;;;;;;12.65;100.00;102144.03;4969653;28;20092;-69
2023/06/06 03:22:18;;;;;;;6.35;2.00;;;;;;;12.86;100.00;102154.00;4971537;28;20050;-69
2023/06/06 03:24:45;;;;;;;6.57;2.25;;;;;;;12.82;100.00;102144.50;4971952;28;20138;-69
2023/06/06 03:27:13;;;;;;;7.18;2.60;;;;;;;12.71;100.00;102135.97;4970422;28;20047;-70
2023/06/06 03:29:40;;;;;;;6.63;2.38;;;;;;;12.81;100.00;102149.78;4970024;28;20051;-70
2023/06/06 03:32:07;;;;;;;6.78;2.60;;;;;;;12.67;100.00;102148.34;4970825;28;20494;-70
2023/06/06 03:34:34;;;;;;;6.55;2.50;;;;;;;12.69;100.00;102143.03;4969169;28;20057;-70
2023/06/06 03:37:01;;;;;;;6.30;2.20;;;;;;;12.71;100.00;102133.34;4970483;28;20051;-69
2023/06/06 03:39:27;;;;;;;7.32;2.40;;;;;;;12.77;100.00;102145.50;4954226;28;20068;-69
2023/06/06 03:41:54;;;;;;;9.23;2.53;;;;;;;12.83;100.00;102150.59;4971416;28;20047;-69
2023/06/06 03:44:21;;;;;;;6.97;2.60;;;;;;;12.75;100.00;102142.03;4965012;28;20471;-69
2023/06/06 03:46:48;;;;;;;7.43;2.70;;;;;;;12.59;100.00;102120.50;4967773;28;20638;-69
2023/06/06 03:49:15;;;;;;;6.28;1.90;;;;;;;12.63;100.00;102123.03;4970885;28;20069;-69
2023/06/06 03:51:42;;;;;;;8.77;2.58;;;;;;;12.82;100.00;102140.97;4970038;28;20432;-69
2023/06/06 03:54:08;;;;;;;7.95;2.67;;;;;;;12.78;100.00;102141.97;4980146;28;20062;-70
2023/06/06 03:56:37;;;;;;;7.55;2.70;;;;;;;12.69;100.00;102143.03;4958090;28;20050;-69
2023/06/06 03:59:05;;;;;;;7.25;2.55;;;;;;;12.61;100.00;102134.50;4949112;28;20153;-69
2023/06/06 04:01:33;;;;;;;7.18;2.55;;;;;;;12.57;100.00;102130.19;4970771;28;20046;-70
2023/06/06 04:03:59;;;;;;;8.07;3.22;;;;;;;12.62;100.00;102146.72;4970339;28;20093;-70
2023/06/06 04:06:26;;;;;;;6.72;2.53;;;;;;;12.65;100.00;102136.16;4948054;28;20055;-70
2023/06/06 04:08:53;;;;;;;7.30;2.30;;;;;;;12.75;100.00;102144.66;4968564;28;20057;-70
2023/06/06 04:11:21;;;;;;;7.07;2.42;;;;;;;12.75;100.00;102158.69;4953839;28;20051;-70
2023/06/06 04:13:48;;;;;;;7.25;2.80;;;;;;;12.90;100.00;102139.88;4970923;28;20057;-70
2023/06/06 04:16:14;;;;;;;8.13;2.38;;;;;;;12.83;100.00;102134.81;4969706;28;20055;-70
2023/06/06 04:18:41;;;;;;;7.68;2.45;;;;;;;12.87;100.00;102144.34;4970800;28;20496;-70
2023/06/06 04:21:08;;;;;;;7.30;2.67;;;;;;;12.79;100.00;102148.97;4969408;28;20061;-70
2023/06/06 04:23:35;;;;;;;8.15;2.90;;;;;;;12.84;100.00;102139.19;4968515;28;20074;-70
2023/06/06 04:26:03;;;;;;;7.07;2.70;;;;;;;12.81;100.00;102140.13;4969176;28;20078;-70
2023/06/06 04:28:31;;;;;;;6.53;2.45;;;;;;;12.97;100.00;102151.13;4969461;28;20042;-70
2023/06/06 04:30:59;;;;;;;7.25;2.67;;;;;;;12.93;100.00;102153.88;4947499;28;20051;-70
2023/06/06 04:33:29;;;;;;;7.32;2.30;;;;;;;12.82;100.00;102140.97;4971064;28;20047;-70
2023/06/06 04:35:57;;;;;;;5.60;2.03;;;;;;;12.76;100.00;102152.50;4968483;28;20105;-70
2023/06/06 04:38:24;;;;;;;9.15;2.75;;;;;;;12.80;100.00;102146.28;4970091;28;20408;-69
2023/06/06 04:40:53;;;;;;;10.00;3.20;;;;;;;12.78;100.00;102145.44;4965306;28;20082;-69
2023/06/06 04:43:40;;;;;;;7.65;2.78;;;;;;;12.84;100.00;102155.81;4968524;28;20047;-69
2023/06/06 04:46:06;;;;;;;8.02;2.90;;;;;;;12.86;100.00;102147.91;4970620;28;20057;-70
2023/06/06 04:48:33;;;;;;;6.88;2.40;;;;;;;12.81;100.00;102136.63;4973613;28;20400;-70
2023/06/06 04:51:01;;;;;;;7.85;2.30;;;;;;;12.86;100.00;102147.91;4973439;28;20042;-70
2023/06/06 04:53:28;;;;;;;8.70;2.50;;;;;;;12.90;100.00;102155.66;4975225;28;20046;-69
2023/06/06 04:55:55;;;;;;;8.82;2.60;;;;;;;12.96;100.00;102156.41;4972794;28;20054;-70
2023/06/06 04:58:22;;;;;;;7.75;2.65;;;;;;;12.93;100.00;102152.09;4971843;28;20050;-69
2023/06/06 05:00:49;;;;;;;7.38;2.42;;;;;;;12.98;100.00;102151.97;4964032;28;20086;-69
2023/06/06 05:03:19;;;;;;;9.70;3.13;;;;;;;12.72;100.00;102138.56;4973587;28;20468;-69
2023/06/06 05:05:48;;;;;;;6.53;2.17;;;;;;;12.75;100.00;102150.78;4968009;28;20142;-70
2023/06/06 05:08:15;;;;;;;6.78;2.30;;;;;;;12.82;100.00;102141.84;4972745;28;20055;-69
2023/06/06 05:10:42;;;;;;;7.88;2.88;;;;;;;12.73;100.00;102148.19;4971863;28;20412;-69
2023/06/06 05:13:09;;;;;;;5.93;2.10;;;;;;;12.85;100.00;102156.69;4972563;28;20508;-69
2023/06/06 05:15:36;;;;;;;8.70;2.65;;;;;;;12.66;100.00;102154.50;4972461;28;20054;-69
2023/06/06 05:18:03;;;;;;;8.48;2.78;;;;;;;12.79;100.00;102149.81;4973874;28;20058;-69
2023/06/06 05:20:30;;;;;;;7.25;2.45;;;;;;;12.80;100.00;102153.28;4967373;28;20047;-69
2023/06/06 05:22:57;;;;;;;7.43;2.63;;;;;;;12.91;100.00;102152.13;4969597;28;20055;-69
2023/06/06 05:25:23;;;;;;;7.57;2.90;;;;;;;12.87;100.00;102145.25;4971204;28;20137;-69
2023/06/06 05:27:51;;;;;;;8.05;2.60;;;;;;;13.02;100.00;102159.75;4972989;28;20142;-69
2023/06/06 05:30:18;;;;;;;8.18;2.72;;;;;;;13.06;100.00;102156.13;4973241;28;20047;-69
2023/06/06 05:32:45;;;;;;;8.25;2.65;;;;;;;12.89;100.00;102146.06;4973544;28;20050;-69
2023/06/06 05:35:12;;;;;;;6.47;2.10;;;;;;;13.08;100.00;102148.22;4964185;28;20324;-70
2023/06/06 05:37:41;;;;;;;7.65;3.00;;;;;;;13.11;100.00;102137.63;4972946;28;20047;-70
2023/06/06 05:40:09;;;;;;;8.77;2.90;;;;;;;13.27;100.00;102145.97;4971467;28;20741;-70
2023/06/06 05:42:36;;;;;;;7.50;2.70;;;;;;;13.37;100.00;102155.41;4971657;28;20101;-69
2023/06/06 05:45:03;;;;;;;7.28;2.88;;;;;;;13.21;100.00;102144.38;4970699;28;20042;-70
2023/06/06 05:47:30;;;;;;;7.68;2.75;;;;;;;13.27;100.00;102149.47;4973291;28;20456;-70
2023/06/06 05:49:57;;;;;;;9.02;2.83;;;;;;;13.12;100.00;102160.41;4971195;28;20733;-69
2023/06/06 05:52:24;;;;;;;7.13;2.63;;;;;;;13.17;100.00;102157.63;4972176;28;20105;-70
2023/06/06 05:55:01;;;;;;;7.65;2.40;;;;;;;13.14;100.00;102145.44;4971222;28;20046;-69
2023/06/06 05:57:27;;;;;;;7.28;2.53;;;;;;;13.10;100.00;102147.28;4962947;28;20130;-69
2023/06/06 05:59:55;;;;;;;7.40;2.38;;;;;;;13.17;100.00;102157.63;4972113;28;20079;-69
2023/06/06 06:02:22;;;;;;;6.65;2.45;;;;;;;13.19;100.00;102161.97;4955020;28;20540;-70
2023/06/06 06:04:52;;;;;;;8.57;2.78;;;;;;;13.01;100.00;102157.16;4971391;28;20105;-69
2023/06/06 06:07:22;;;;;;;8.00;3.00;;;;;;;13.08;100.00;102166.63;4972253;28;20050;-70
2023/06/06 06:09:49;;;;;;;7.43;2.90;;;;;;;13.15;100.00;102149.78;4971863;28;20064;-70
2023/06/06 06:12:15;;;;;;;10.73;3.38;;;;;;;13.35;100.00;102166.84;4972702;28;20046;-70
2023/06/06 06:14:42;;;;;;;8.43;3.15;;;;;;;13.35;100.00;102156.31;4971002;28;20060;-69
2023/06/06 06:17:09;;;;;;;7.30;2.80;;;;;;;13.04;100.00;102167.59;4970725;28;20055;-70
2023/06/06 06:19:36;;;;;;;13.52;4.47;;;;;;;13.21;100.00;102168.06;4970832;28;20057;-70
2023/06/06 06:22:03;;;;;;;7.97;2.92;;;;;;;13.27;100.00;102159.97;4970571;28;20099;-69
2023/06/06 06:24:30;;;;;;;7.53;2.97;;;;;;;13.27;100.00;102148.59;4972522;28;20047;-69
2023/06/06 06:26:57;;;;;;;7.88;2.75;;;;;;;13.25;100.00;102158.31;4970773;28;20059;-69
2023/06/06 06:29:24;;;;;;;7.90;2.50;;;;;;;13.51;100.00;102168.19;4970132;28;20528;-69
2023/06/06 06:31:50;;;;;;;7.00;2.65;;;;;;;13.61;100.00;102168.78;4972435;28;20055;-69
2023/06/06 06:34:17;;;;;;;7.47;2.58;;;;;;;13.45;100.00;102163.91;4967749;28;20078;-69
2023/06/06 06:36:44;;;;;;;7.88;3.03;;;;;;;13.48;100.00;102157.72;4968766;28;20055;-69
2023/06/06 06:39:17;;;;;;;7.30;2.63;;;;;;;13.42;100.00;102156.13;4968631;28;20142;-69
2023/06/06 06:41:46;;;;;;;;;;;;;;;13.43;100.00;102173.63;4965145;28;20077;-69
2023/06/06 06:44:13;;;;;;;7.90;2.95;;;;;;;13.34;100.00;102146.72;4967614;28;19933;-68
2023/06/06 06:46:40;;;;;;;6.50;2.22;;;;;;;13.38;100.00;102159.72;4970055;28;20046;-69
2023/06/06 06:49:14;;;;;;;6.88;2.60;;;;;;;13.33;100.00;102166.88;4975531;28;20046;-69
2023/06/06 06:51:41;;;;;;;7.88;2.58;;;;;;;13.21;100.00;102143.50;4972959;28;20051;-70
2023/06/06 06:54:12;;;;;;;7.00;3.00;;;;;;;13.51;100.00;102165.56;4971227;28;20466;-69
2023/06/06 06:56:42;;;;;;;7.00;2.30;;;;;;;13.46;100.00;102155.13;4967968;28;20051;-69
2023/06/06 06:59:09;;;;;;;6.13;2.05;;;;;;;13.58;100.00;102143.44;4962670;28;20051;-69
2023/06/06 07:01:39;;;;;;;7.13;2.40;;;;;;;13.57;100.00;102133.78;4960861;28;20093;-69
2023/06/06 07:04:08;;;;;;;7.53;2.53;;;;;;;13.71;100.00;102156.25;4969750;28;20054;-69
2023/06/06 07:06:36;;;;;;;13.60;3.28;;;;;;;13.69;100.00;102156.28;4962135;28;20051;-69
2023/06/06 07:09:06;;;;;;;10.38;3.60;;;;;;;13.11;100.00;102132.38;4966487;28;20511;-70
2023/06/06 07:11:33;;;;;;;8.20;2.88;;;;;;;13.47;100.00;102148.09;4970414;28;20126;-70
2023/06/06 07:13:59;;;;;;;11.13;3.13;;;;;;;13.34;100.00;102133.56;4967491;28;20105;-69
2023/06/06 07:16:26;;;;;;;7.05;2.22;;;;;;;13.55;100.00;102134.75;4965199;28;20046;-70
2023/06/06 07:18:53;;;;;;;7.00;2.30;;;;;;;13.79;100.00;102141.06;4970518;28;20131;-70
2023/06/06 07:21:21;;;;;;;8.38;2.78;;;;;;;13.94;100.00;102147.69;4969821;28;20073;-70
2023/06/06 07:23:49;;;;;;;7.47;2.50;;;;;;;13.76;100.00;102146.44;4963627;28;20391;-70
2023/06/06 07:26:19;;;;;;;7.95;2.50;;;;;;;13.77;100.00;102154.28;4970631;28;20061;-69
2023/06/06 07:28:46;;;;;;;7.75;2.80;;;;;;;13.68;100.00;102141.38;4966018;28;20054;-69
2023/06/06 07:31:14;;;;;;;9.20;3.03;;;;;;;13.80;100.00;102158.59;4970444;28;20047;-70
2023/06/06 07:33:42;;;;;;;8.65;3.00;;;;;;;13.88;100.00;102148.69;4953893;28;20047;-69
2023/06/06 07:36:09;;;;;;;11.23;3.47;;;;;;;13.87;100.00;102157.53;4968866;28;20447;-70
2023/06/06 07:38:36;;;;;;;8.02;3.05;;;;;;;13.92;100.00;102158.25;4971351;28;20476;-69
2023/06/06 07:41:03;;;;;;;9.57;2.95;;;;;;;13.67;100.00;102142.31;4971296;28;20134;-69
2023/06/06 07:43:29;;;;;;;8.07;2.75;;;;;;;13.83;100.00;102158.53;4970820;28;20397;-70
2023/06/06 07:45:56;;;;;;;7.97;2.80;;;;;;;13.76;100.00;102167.50;4950482;28;20053;-70
2023/06/06 07:48:23;;;;;;;8.52;2.65;;;;;;;13.76;100.00;102157.84;4969249;28;20053;-70
2023/06/06 07:50:50;;;;;;;8.18;2.67;;;;;;;13.75;100.00;102161.34;4968337;28;20054;-70
2023/06/06 07:53:17;;;;;;;6.93;2.60;;;;;;;13.86;100.00;102155.78;4951668;28;20051;-70
2023/06/06 07:55:43;;;;;;;8.63;2.72;;;;;;;13.68;100.00;102159.81;4968720;28;20054;-70
2023/06/06 07:58:10;;;;;;;8.88;3.20;;;;;;;13.58;100.00;102167.09;4969379;28;20492;-70
2023/06/06 08:00:40;;;;;;;9.98;2.95;;;;;;;13.50;100.00;102163.81;4969838;28;20054;-70
2023/06/06 08:03:07;;;;;;;8.80;2.58;;;;;;;13.65;100.00;102149.34;4970430;28;20511;-70
2023/06/06 08:05:36;;;;;;;9.55;2.72;;;;;;;13.76;100.00;102154.34;4943430;28;20043;-69
2023/06/06 08:08:05;;;;;;;12.00;4.00;;;;;;;13.43;100.00;102159.63;4957894;28;20083;-70
2023/06/06 08:10:33;;;;;;;7.47;2.92;;;;;;;13.60;100.00;102156.53;4963721;28;20505;-70
2023/06/06 08:13:00;;;;;;;10.85;3.05;;;;;;;13.68;100.00;102159.81;4958567;28;20039;-70
2023/06/06 08:15:27;;;;;;;9.38;3.28;;;;;;;13.95;100.00;102159.91;4964162;28;20047;-70
2023/06/06 08:17:54;;;;;;;9.27;3.15;;;;;;;14.11;100.00;102163.84;4958981;28;20057;-70
2023/06/06 08:20:21;;;;;;;7.70;2.90;;;;;;;14.09;100.00;102154.25;4963057;28;20055;-70
2023/06/06 08:22:49;;;;;;;9.75;3.58;;;;;;;14.06;100.00;102171.03;4970393;28;20105;-70
2023/06/06 08:25:16;;;;;;;9.07;3.60;;;;;;;14.03;100.00;102166.69;4972149;28;20059;-68
2023/06/06 08:27:43;;;;;;;9.85;3.47;;;;;;;13.91;100.00;102160.94;4972533;28;20145;-68
2023/06/06 08:30:10;;;;;;;10.48;3.42;;;;;;;13.88;100.00;102168.91;4972523;28;20055;-69
2023/06/06 08:32:37;;;;;;;10.02;3.33;;;;;;;13.84;100.00;102173.41;4960738;28;20047;-69
2023/06/06 08:35:05;;;;;;;10.65;3.97;;;;;;;13.46;100.00;102152.50;4969779;28;20061;-68
2023/06/06 08:37:32;;;;;;;8.57;3.17;;;;;;;13.70;100.00;102176.41;4973867;28;20057;-69
2023/06/06 08:39:58;;;;;;;7.78;2.78;;;;;;;13.79;100.00;102173.53;4967661;28;20054;-68
2023/06/06 08:42:27;;;;;;;8.43;2.88;;;;;;;13.63;100.00;102175.75;4965719;28;20047;-68
2023/06/06 08:44:56;;;;;;;7.32;2.58;;;;;;;13.94;100.00;102180.13;4968201;28;20284;-67
2023/06/06 08:47:25;;;;;;;11.68;4.35;;;;;;;14.13;100.00;102184.84;4968635;28;20055;-67
2023/06/06 08:49:53;;;;;;;11.05;4.18;;;;;;;13.96;100.00;102183.59;4974020;28;20058;-67
2023/06/06 08:52:21;;;;;;;7.90;3.10;;;;;;;13.97;100.00;102161.63;4964165;28;20098;-67
2023/06/06 08:54:50;;;;;;;8.65;3.45;;;;;;;14.12;100.00;102175.25;4970748;28;20058;-68
2023/06/06 08:57:19;;;;;;;7.38;2.97;;;;;;;14.00;100.00;102164.16;4968776;28;20552;-68
2023/06/06 08:59:47;;;;;;;10.90;3.10;;;;;;;14.11;100.00;102181.41;4967326;28;20057;-68
2023/06/06 09:02:14;;;;;;;8.88;3.30;;;;;;;13.90;100.00;102183.78;4973837;28;20093;-68
2023/06/06 09:04:42;;;;;;;8.60;3.00;;;;;;;13.74;100.00;102135.06;4967463;28;20089;-68
2023/06/06 09:07:12;;;;;;;8.57;3.58;;;;;;;13.70;100.00;102173.78;4972831;28;20496;-68
2023/06/06 09:09:45;;;;;;;9.13;3.17;;;;;;;13.82;100.00;102176.06;4973710;28;20051;-68
2023/06/06 09:12:12;;;;;;;8.67;3.47;;;;;;;13.63;100.00;102185.38;4969783;28;20046;-68
2023/06/06 09:14:38;;;;;;;8.63;2.78;;;;;;;13.71;100.00;102187.81;4973449;28;20280;-67
2023/06/06 09:17:05;;;;;;;8.93;2.92;;;;;;;14.00;100.00;102185.22;4970147;28;20059;-68
2023/06/06 09:19:32;;;;;;;6.95;2.50;;;;;;;14.04;100.00;102184.22;4967234;28;20081;-68
2023/06/06 09:22:05;;;;;;;8.65;2.78;;;;;;;13.99;100.00;102172.97;4952271;28;20055;-68
2023/06/06 09:24:33;;;;;;;7.38;2.33;;;;;;;14.02;100.00;102175.53;4971090;28;20417;-68
2023/06/06 09:27:00;;;;;;;8.02;3.20;;;;;;;14.01;100.00;102189.59;4972588;28;20109;-68
2023/06/06 09:29:27;;;;;;;8.45;3.20;;;;;;;13.88;100.00;102163.66;4969136;28;20054;-68
2023/06/06 09:31:54;;;;;;;9.73;3.17;;;;;;;14.08;100.00;102176.22;4972955;28;20468;-68
2023/06/06 09:34:25;;;;;;;8.10;2.55;;;;;;;14.29;100.00;102185.25;4971453;28;20082;-68
2023/06/06 09:36:52;;;;;;;7.95;2.97;;;;;;;14.28;100.00;102184.41;4968539;28;20402;-68
2023/06/06 09:39:19;;;;;;;8.05;2.95;;;;;;;14.37;100.00;102185.91;4972894;28;20413;-67
2023/06/06 09:41:47;;;;;;;9.27;2.90;;;;;;;14.36;100.00;102166.59;4973034;28;20082;-68
2023/06/06 09:44:25;;;;;;;8.90;3.30;;;;;;;14.73;100.00;102178.66;4966417;28;20043;-68
2023/06/06 09:46:59;;;;;;;8.98;2.95;;;;;;;14.89;100.00;102181.66;4968871;28;20090;-68
2023/06/06 09:49:36;;;;;;;8.27;3.03;;;;;;;14.76;100.00;102178.53;4964127;28;20054;-68
2023/06/06 09:52:04;;;;;;;8.45;3.33;;;;;;;14.82;100.00;102174.88;4972421;28;20055;-68
2023/06/06 09:54:31;;;;;;;7.88;2.70;;;;;;;15.07;100.00;102187.22;4963702;28;20054;-68
2023/06/06 09:56:59;;;;;;;11.13;3.50;;;;;;;14.80;100.00;102174.91;4969515;28;20062;-68
2023/06/06 09:59:27;;;;;;;9.48;3.80;;;;;;;14.94;100.00;102181.50;4972185;28;20563;-68
2023/06/06 10:02:02;;;;;;;9.13;3.63;;;;;;;15.25;100.00;102180.50;4964185;28;20497;-68
2023/06/06 10:04:29;;;;;;;8.70;2.83;;;;;;;15.26;100.00;102180.41;4972693;28;20046;-68
2023/06/06 10:06:59;;;;;;;7.75;2.90;;;;;;;15.25;100.00;102177.84;4973520;28;20043;-68
2023/06/06 10:09:26;;;;;;;8.48;3.10;;;;;;;15.38;100.00;102179.13;4973173;28;20051;-68
2023/06/06 10:11:54;;;;;;;7.40;2.58;;;;;;;15.24;100.00;102184.88;4969826;28;20058;-68
2023/06/06 10:14:21;;;;;;;7.00;2.38;;;;;;;15.38;100.00;102194.97;4955232;28;20046;-68
2023/06/06 10:16:49;;;;;;;6.75;2.25;;;;;;;15.67;100.00;102187.78;4971198;28;20066;-68
2023/06/06 10:19:19;;;;;;;8.98;2.83;;;;;;;15.12;100.00;102183.53;4955024;28;20053;-68
2023/06/06 10:21:47;;;;;;;8.50;2.75;;;;;;;15.45;100.00;102172.72;4972572;28;20051;-68
2023/06/06 10:24:15;;;;;;;7.30;2.70;;;;;;;14.96;100.00;102174.41;4973082;28;20586;-68
2023/06/06 10:27:00;;;;;;;7.15;2.20;;;;;;;15.13;100.00;102174.69;4954410;28;20055;-68
2023/06/06 10:30:02;;;;;;;5.78;1.88;;;;;;;15.59;100.00;102182.78;4972295;28;20054;-67
2023/06/06 10:32:58;;;;;;;6.28;2.03;;;;;;;15.60;100.00;102179.25;4969982;28;20066;-67
2023/06/06 10:35:25;;;;;;;7.03;2.38;;;;;;;15.81;100.00;102172.38;4969572;28;20121;-68
2023/06/06 10:38:04;;;;;;;5.63;2.00;;;;;;;15.79;100.00;102168.03;4971975;28;20051;-68
2023/06/06 10:40:54;;;;;;;6.47;2.20;;;;;;;15.85;100.00;102175.75;4970161;28;20054;-68
2023/06/06 10:43:32;;;;;;;5.75;2.10;;;;;;;15.62;100.00;102168.66;4969869;28;20054;-67
2023/06/06 10:46:04;;;;;;;6.50;2.03;;;;;;;15.68;100.00;102174.53;4969218;28;20061;-68
2023/06/06 10:48:38;;;;;;;7.72;2.22;;;;;;;16.14;100.00;102175.50;4968691;28;20054;-68
2023/06/06 10:51:06;;;;;;;5.93;2.08;;;;;;;15.89;100.00;102141.22;4970533;28;20090;-68
2023/06/06 10:53:33;;;;;;;6.55;2.10;;;;;;;15.88;100.00;102163.31;4971380;28;20074;-68
2023/06/06 10:56:02;;;;;;;7.07;2.10;;;;;;;15.88;100.00;102165.06;4971094;28;20067;-69
2023/06/06 10:58:33;;;;;;;4.85;1.80;;;;;;;16.28;100.00;102176.78;4972018;28;20051;-69
2023/06/06 11:01:05;;;;;;;5.63;2.17;;;;;;;16.09;100.00;102168.69;4974695;28;20386;-67
2023/06/06 11:03:33;;;;;;;5.72;1.80;;;;;;;16.38;100.00;102172.84;4970875;28;20047;-67
2023/06/06 11:06:00;;;;;;;6.93;2.33;;;;;;;16.21;100.00;102170.84;4961608;28;20051;-67
2023/06/06 11:08:41;;;;;;;6.00;1.80;;;;;;;16.43;100.00;102176.19;4953833;28;20133;-68
2023/06/06 11:11:22;;;;;;;5.75;1.75;;;;;;;16.22;100.00;102162.03;4971038;28;20055;-68
2023/06/06 11:13:59;;;;;;;4.45;1.40;;;;;;;16.48;100.00;102166.28;4937221;28;20493;-68
2023/06/06 11:16:49;;;;;;;5.00;1.50;;;;;;;16.73;100.00;102164.41;4967990;28;20086;-67
2023/06/06 11:19:19;;;;;;;4.60;1.50;;;;;;;16.22;100.00;102162.03;4961833;28;20057;-68
2023/06/06 11:21:48;;;;;;;5.00;1.63;;;;;;;16.17;100.00;102163.13;4971543;28;20054;-68
2023/06/06 11:24:16;;;;;;;4.15;1.33;;;;;;;16.08;100.00;102159.03;4971891;28;20043;-68